createdAt,value
2023-02-17T00:02:01.214Z,5.64
2023-02-17T00:04:47.552Z,5.61
2023-02-17T00:07:34.350Z,5.65
2023-02-17T00:10:20.706Z,5.37
2023-02-17T00:13:06.904Z,5.73
2023-02-17T00:15:54.041Z,5.68
2023-02-17T00:18:40.475Z,5.36
2023-02-17T00:21:29.249Z,5.69
2023-02-17T00:24:16.206Z,5.77
2023-02-17T00:27:02.626Z,5.71
2023-02-17T00:29:49.155Z,5.69
2023-02-17T00:32:36.766Z,5.56
2023-02-17T00:35:23.150Z,5.53
2023-02-17T00:38:09.363Z,5.83
2023-02-17T00:40:55.553Z,5.81
2023-02-17T00:43:43.797Z,5.68
2023-02-17T00:46:30.158Z,5.65
2023-02-17T00:49:25.034Z,5.76
2023-02-17T00:52:11.233Z,5.87
2023-02-17T00:54:57.785Z,6.13
2023-02-17T00:57:44.224Z,6.02
2023-02-17T01:00:30.618Z,6.05
2023-02-17T01:03:18.373Z,6.04
2023-02-17T01:06:09.986Z,6.09
2023-02-17T01:08:56.398Z,6.24
2023-02-17T01:11:43.680Z,6.16
2023-02-17T01:14:29.993Z,6.15
2023-02-17T01:17:16.162Z,6.04
2023-02-17T01:20:03.546Z,5.98
2023-02-17T01:22:49.816Z,6.16
2023-02-17T01:25:37.672Z,6.14
2023-02-17T01:28:23.976Z,6.10
2023-02-17T01:31:11.272Z,6.26
2023-02-17T01:33:59.953Z,6.19
2023-02-17T01:36:46.456Z,6.21
2023-02-17T01:39:33.134Z,6.50
2023-02-17T01:42:20.702Z,6.53
2023-02-17T01:45:17.278Z,6.54
2023-02-17T01:48:16.861Z,6.63
2023-02-17T01:51:14.429Z,6.43
2023-02-17T01:54:08.892Z,6.74
2023-02-17T01:56:58.075Z,6.74
2023-02-17T01:59:45.553Z,6.65
2023-02-17T02:02:32.678Z,6.77
2023-02-17T02:05:20.687Z,6.83
2023-02-17T02:08:08.987Z,6.86
2023-02-17T02:10:55.186Z,6.76
2023-02-17T02:13:41.504Z,6.90
2023-02-17T02:16:44.699Z,7.12
2023-02-17T02:19:45.139Z,7.30
2023-02-17T02:22:37.802Z,7.22
2023-02-17T02:25:51.789Z,7.13
2023-02-17T02:28:51.317Z,7.24
2023-02-17T02:31:46.677Z,7.29
2023-02-17T02:34:49.430Z,6.99
2023-02-17T02:37:43.722Z,7.19
2023-02-17T02:40:36.459Z,7.20
2023-02-17T02:43:24.883Z,6.93
2023-02-17T02:46:11.533Z,6.91
2023-02-17T02:48:58.017Z,6.95
2023-02-17T02:51:54.059Z,6.96
2023-02-17T02:55:31.568Z,6.93
2023-02-17T02:58:36.240Z,6.84
2023-02-17T03:01:37.134Z,6.77
2023-02-17T03:04:36.546Z,6.67
2023-02-17T03:07:30.317Z,6.63
2023-02-17T03:10:17.310Z,6.68
2023-02-17T03:13:03.954Z,6.76
2023-02-17T03:15:50.565Z,6.82
2023-02-17T03:18:37.028Z,6.94
2023-02-17T03:21:26.127Z,6.86
2023-02-17T03:24:12.466Z,6.85
2023-02-17T03:26:59.345Z,6.81
2023-02-17T03:29:45.523Z,6.64
2023-02-17T03:32:31.934Z,6.56
2023-02-17T03:35:18.126Z,6.63
2023-02-17T03:38:04.307Z,6.60
2023-02-17T03:40:50.650Z,6.54
2023-02-17T03:43:37.032Z,6.44
2023-02-17T03:46:23.341Z,6.62
2023-02-17T03:49:11.132Z,6.46
2023-02-17T03:51:59.436Z,6.60
2023-02-17T03:54:45.941Z,6.39
2023-02-17T03:57:33.658Z,6.61
2023-02-17T04:00:20.421Z,6.63
2023-02-17T04:03:06.692Z,6.56
2023-02-17T04:05:54.515Z,6.59
2023-02-17T04:08:41.304Z,6.60
2023-02-17T04:11:27.441Z,6.56
2023-02-17T04:14:13.699Z,6.67
2023-02-17T04:16:59.854Z,6.59
2023-02-17T04:19:46.271Z,6.90
2023-02-17T04:22:32.611Z,7.22
2023-02-17T04:25:19.121Z,7.45
2023-02-17T04:28:06.222Z,7.65
2023-02-17T04:30:53.066Z,7.66
2023-02-17T04:33:39.676Z,7.58
2023-02-17T04:36:26.169Z,7.43
2023-02-17T04:39:12.497Z,7.36
2023-02-17T04:41:58.783Z,7.29
2023-02-17T04:44:44.858Z,7.26
2023-02-17T04:47:31.393Z,7.38
2023-02-17T04:50:19.548Z,7.40
2023-02-17T04:53:08.614Z,7.38
2023-02-17T04:55:55.017Z,7.21
2023-02-17T04:58:41.657Z,7.06
2023-02-17T05:01:27.960Z,7.02
2023-02-17T05:04:14.095Z,7.20
2023-02-17T05:07:00.490Z,7.10
2023-02-17T05:09:46.775Z,7.19
2023-02-17T05:12:33.307Z,6.77
2023-02-17T05:15:19.819Z,7.18
2023-02-17T05:18:06.154Z,7.41
2023-02-17T05:20:52.402Z,7.27
2023-02-17T05:23:41.185Z,7.18
2023-02-17T05:26:27.802Z,7.21
2023-02-17T05:29:14.061Z,7.12
2023-02-17T05:32:00.300Z,7.16
2023-02-17T05:34:46.821Z,7.09
2023-02-17T05:37:33.243Z,7.04
2023-02-17T05:40:19.815Z,7.00
2023-02-17T05:43:05.976Z,6.90
2023-02-17T05:45:52.575Z,7.05
2023-02-17T05:48:38.862Z,7.02
2023-02-17T05:51:25.126Z,6.99
2023-02-17T05:54:11.515Z,7.04
2023-02-17T05:56:57.763Z,6.89
2023-02-17T05:59:44.172Z,7.07
2023-02-17T06:02:30.312Z,7.02
2023-02-17T06:05:17.012Z,6.86
2023-02-17T06:08:03.328Z,7.04
2023-02-17T06:10:49.497Z,7.12
2023-02-17T06:13:36.193Z,7.25
2023-02-17T06:16:22.660Z,7.13
2023-02-17T06:19:09.222Z,6.98
2023-02-17T06:21:57.023Z,7.35
2023-02-17T06:24:43.574Z,7.60
2023-02-17T06:27:29.977Z,8.13
2023-02-17T06:30:17.657Z,8.28
2023-02-17T06:33:04.158Z,8.17
2023-02-17T06:35:51.961Z,8.27
2023-02-17T06:38:38.525Z,8.46
2023-02-17T06:41:24.951Z,8.44
2023-02-17T06:44:11.221Z,8.89
2023-02-17T06:46:59.236Z,9.08
2023-02-17T06:49:45.400Z,9.03
2023-02-17T06:52:32.053Z,8.90
2023-02-17T06:55:18.607Z,9.17
2023-02-17T06:58:04.860Z,9.28
2023-02-17T07:00:51.573Z,9.30
2023-02-17T07:03:37.970Z,9.12
2023-02-17T07:06:25.166Z,9.38
2023-02-17T07:09:13.710Z,9.35
2023-02-17T07:12:00.238Z,9.53
2023-02-17T07:14:46.363Z,9.52
2023-02-17T07:17:32.885Z,9.51
2023-02-17T07:20:19.239Z,9.66
2023-02-17T07:23:05.706Z,9.52
2023-02-17T07:25:52.290Z,9.80
2023-02-17T07:28:39.675Z,9.60
2023-02-17T07:31:26.064Z,9.77
2023-02-17T07:34:12.571Z,9.57
2023-02-17T07:36:59.163Z,9.76
2023-02-17T07:39:45.390Z,9.76
2023-02-17T07:42:31.576Z,9.79
2023-02-17T07:45:20.341Z,9.83
2023-02-17T07:48:06.572Z,10.04
2023-02-17T07:50:53.363Z,9.85
2023-02-17T07:53:40.061Z,10.06
2023-02-17T07:56:26.610Z,10.07
2023-02-17T07:59:14.768Z,10.43
2023-02-17T08:02:01.156Z,10.36
2023-02-17T08:04:47.749Z,10.09
2023-02-17T08:07:33.936Z,10.39
2023-02-17T08:10:38.778Z,10.48
2023-02-17T08:13:27.158Z,10.61
2023-02-17T08:16:13.744Z,10.44
2023-02-17T08:18:59.994Z,10.51
2023-02-17T08:21:46.882Z,10.64
2023-02-17T08:24:33.123Z,10.68
2023-02-17T08:27:20.036Z,10.72
2023-02-17T08:30:07.128Z,10.44
2023-02-17T08:32:53.508Z,10.82
2023-02-17T08:35:39.705Z,10.66
2023-02-17T08:38:27.064Z,10.70
2023-02-17T08:41:20.645Z,10.69
2023-02-17T08:44:12.473Z,10.55
2023-02-17T08:46:58.760Z,10.46
2023-02-17T08:49:45.270Z,10.54
2023-02-17T08:52:31.495Z,10.55
2023-02-17T08:55:20.089Z,10.59
2023-02-17T08:58:06.704Z,10.56
2023-02-17T09:00:53.278Z,10.49
2023-02-17T09:03:41.619Z,10.78
2023-02-17T09:06:35.417Z,10.83
2023-02-17T09:09:26.710Z,10.96
2023-02-17T09:12:13.511Z,10.86
2023-02-17T09:14:59.942Z,10.86
2023-02-17T09:17:46.326Z,11.00
2023-02-17T09:20:32.999Z,11.22
2023-02-17T09:23:19.931Z,11.29
2023-02-17T09:26:10.044Z,11.42
2023-02-17T09:28:57.930Z,11.40
2023-02-17T09:31:46.098Z,11.54
2023-02-17T09:34:38.191Z,11.59
2023-02-17T09:37:24.773Z,11.84
2023-02-17T09:40:20.057Z,12.35
2023-02-17T09:43:14.119Z,12.38
2023-02-17T09:46:09.867Z,12.37
2023-02-17T09:49:03.538Z,12.60
2023-02-17T09:52:12.905Z,12.44
2023-02-17T09:55:25.452Z,12.13
2023-02-17T09:58:14.719Z,11.92
2023-02-17T10:01:06.374Z,12.09
2023-02-17T10:04:02.896Z,11.98
2023-02-17T10:07:02.685Z,12.19
2023-02-17T10:10:18.184Z,12.08
2023-02-17T10:13:06.911Z,12.21
2023-02-17T10:15:54.939Z,12.26
2023-02-17T10:18:51.767Z,12.55
2023-02-17T10:21:51.248Z,12.57
2023-02-17T10:24:37.774Z,12.49
2023-02-17T10:27:36.164Z,12.43
2023-02-17T10:30:45.910Z,12.48
2023-02-17T10:33:38.003Z,12.13
2023-02-17T10:36:34.031Z,12.22
2023-02-17T10:39:32.823Z,12.38
2023-02-17T10:42:27.503Z,12.29
2023-02-17T10:45:24.713Z,12.02
2023-02-17T10:48:17.921Z,12.20
2023-02-17T10:51:04.872Z,12.09
2023-02-17T10:54:13.969Z,12.15
2023-02-17T10:57:03.732Z,12.21
2023-02-17T10:59:50.413Z,12.42
2023-02-17T11:02:42.148Z,12.53
2023-02-17T11:05:31.717Z,12.79
2023-02-17T11:08:29.375Z,13.16
2023-02-17T11:11:21.724Z,13.27
2023-02-17T11:14:07.979Z,13.53
2023-02-17T11:16:59.477Z,13.44
2023-02-17T11:19:56.911Z,13.67
2023-02-17T11:22:46.108Z,13.48
2023-02-17T11:25:35.837Z,13.46
2023-02-17T11:28:24.788Z,13.67
2023-02-17T11:31:29.705Z,13.92
2023-02-17T11:34:22.735Z,13.69
2023-02-17T11:37:09.116Z,14.05
2023-02-17T11:39:55.714Z,13.78
2023-02-17T11:42:42.014Z,13.84
2023-02-17T11:45:38.571Z,13.83
2023-02-17T11:48:49.663Z,13.86
2023-02-17T11:51:38.670Z,13.58
2023-02-17T11:54:31.174Z,13.58
2023-02-17T11:57:45.746Z,13.60
2023-02-17T12:00:58.649Z,13.54
2023-02-17T12:03:45.051Z,13.91
2023-02-17T12:06:55.303Z,14.00
2023-02-17T12:10:05.614Z,14.10
2023-02-17T12:13:01.108Z,14.04
2023-02-17T12:16:17.684Z,14.11
2023-02-17T12:19:18.980Z,14.18
2023-02-17T12:22:19.645Z,14.15
2023-02-17T12:25:15.013Z,14.11
2023-02-17T12:28:22.661Z,13.98
2023-02-17T12:32:00.685Z,14.36
2023-02-17T12:34:46.797Z,14.59
2023-02-17T12:37:41.885Z,14.59
2023-02-17T12:40:37.861Z,14.47
2023-02-17T12:43:34.703Z,14.07
2023-02-17T12:46:28.721Z,14.26
2023-02-17T12:49:43.455Z,14.11
2023-02-17T12:52:39.096Z,14.02
2023-02-17T12:55:32.223Z,13.77
2023-02-17T12:58:24.612Z,14.08
2023-02-17T13:01:16.884Z,13.92
2023-02-17T13:04:03.496Z,14.03
2023-02-17T13:06:57.257Z,13.88
2023-02-17T13:09:48.581Z,14.06
2023-02-17T13:12:40.367Z,13.88
2023-02-17T13:15:33.709Z,13.61
2023-02-17T13:18:23.020Z,13.87
2023-02-17T13:21:28.819Z,13.84
2023-02-17T13:24:38.250Z,13.88
2023-02-17T13:27:27.664Z,14.11
2023-02-17T13:30:17.328Z,14.33
2023-02-17T13:33:22.856Z,14.58
2023-02-17T13:36:32.732Z,14.28
2023-02-17T13:39:28.434Z,14.04
2023-02-17T13:42:41.334Z,13.99
2023-02-17T13:45:42.303Z,14.05
2023-02-17T13:48:31.475Z,13.74
2023-02-17T13:51:30.410Z,13.86
2023-02-17T13:54:21.352Z,14.22
2023-02-17T13:57:22.994Z,14.30
2023-02-17T14:00:31.070Z,14.39
2023-02-17T14:03:25.507Z,14.79
2023-02-17T14:06:27.138Z,14.67
2023-02-17T14:09:26.459Z,14.87
2023-02-17T14:12:23.398Z,14.51
2023-02-17T14:15:22.549Z,14.08
2023-02-17T14:18:14.716Z,14.32
2023-02-17T14:21:23.192Z,14.23
2023-02-17T14:24:26.113Z,14.41
2023-02-17T14:27:14.170Z,14.36
2023-02-17T14:30:00.879Z,14.15
2023-02-17T14:32:47.870Z,13.81
2023-02-17T14:35:35.492Z,14.04
2023-02-17T14:38:35.183Z,14.03
2023-02-17T14:41:21.402Z,13.85
2023-02-17T14:44:08.556Z,14.08
2023-02-17T14:46:55.301Z,13.95
2023-02-17T14:49:41.736Z,14.45
2023-02-17T14:52:28.309Z,14.41
2023-02-17T14:55:38.910Z,14.48
2023-02-17T14:58:26.402Z,14.46
2023-02-17T15:01:14.777Z,14.60
2023-02-17T15:04:02.815Z,14.66
2023-02-17T15:06:51.528Z,14.83
2023-02-17T15:09:38.400Z,14.61
2023-02-17T15:12:27.830Z,14.95
2023-02-17T15:15:16.147Z,14.95
2023-02-17T15:18:02.419Z,14.88
2023-02-17T15:20:51.393Z,14.83
2023-02-17T15:23:38.653Z,14.72
2023-02-17T15:26:25.042Z,14.15
2023-02-17T15:29:18.020Z,14.47
2023-02-17T15:32:10.756Z,14.12
2023-02-17T15:34:57.914Z,14.16
2023-02-17T15:37:44.415Z,13.81
2023-02-17T15:40:30.959Z,14.16
2023-02-17T15:43:21.718Z,14.23
2023-02-17T15:46:13.910Z,13.90
2023-02-17T15:49:00.197Z,14.04
2023-02-17T15:51:46.575Z,13.83
2023-02-17T15:54:32.724Z,13.92
2023-02-17T15:57:24.750Z,13.94
2023-02-17T16:00:19.402Z,13.90
2023-02-17T16:03:05.739Z,13.55
2023-02-17T16:05:53.272Z,13.81
2023-02-17T16:08:40.021Z,13.57
2023-02-17T16:11:27.729Z,13.48
2023-02-17T16:14:25.432Z,13.70
2023-02-17T16:17:15.866Z,13.64
2023-02-17T16:20:02.432Z,13.61
2023-02-17T16:22:48.931Z,13.68
2023-02-17T16:25:36.559Z,13.57
2023-02-17T16:28:23.069Z,13.37
2023-02-17T16:31:10.371Z,13.57
2023-02-17T16:34:00.195Z,13.50
2023-02-17T16:36:48.283Z,13.59
2023-02-17T16:39:35.020Z,13.41
2023-02-17T16:42:21.788Z,13.38
2023-02-17T16:45:15.364Z,13.56
2023-02-17T16:48:02.383Z,13.20
2023-02-17T16:50:49.045Z,13.43
2023-02-17T16:53:35.505Z,13.37
2023-02-17T16:56:37.207Z,13.45
2023-02-17T16:59:25.451Z,13.19
2023-02-17T17:02:12.965Z,13.21
2023-02-17T17:04:59.333Z,13.04
2023-02-17T17:07:46.726Z,13.11
2023-02-17T17:10:33.625Z,13.09
2023-02-17T17:13:19.998Z,13.11
2023-02-17T17:16:13.311Z,13.29
2023-02-17T17:19:00.283Z,13.02
2023-02-17T17:21:46.603Z,13.10
2023-02-17T17:24:32.974Z,12.84
2023-02-17T17:27:19.258Z,12.41
2023-02-17T17:30:06.688Z,12.52
2023-02-17T17:32:52.939Z,12.48
2023-02-17T17:35:39.353Z,12.19
2023-02-17T17:38:25.812Z,12.45
2023-02-17T17:41:13.650Z,12.47
2023-02-17T17:44:00.329Z,12.18
2023-02-17T17:46:46.582Z,11.84
2023-02-17T17:49:32.836Z,12.17
2023-02-17T17:52:20.406Z,12.56
2023-02-17T17:55:06.827Z,12.45
2023-02-17T17:57:53.722Z,12.64
2023-02-17T18:00:40.252Z,12.40
2023-02-17T18:03:26.667Z,12.61
2023-02-17T18:06:21.266Z,12.68
2023-02-17T18:09:13.302Z,12.41
2023-02-17T18:12:09.207Z,12.52
2023-02-17T18:14:55.941Z,12.47
2023-02-17T18:17:43.106Z,12.40
2023-02-17T18:20:29.385Z,12.66
2023-02-17T18:23:15.957Z,12.42
2023-02-17T18:26:02.325Z,12.37
2023-02-17T18:28:48.943Z,12.21
2023-02-17T18:31:35.475Z,12.26
2023-02-17T18:34:22.044Z,12.22
2023-02-17T18:37:08.243Z,11.97
2023-02-17T18:39:54.499Z,12.03
2023-02-17T18:42:42.129Z,12.22
2023-02-17T18:45:28.623Z,11.71
2023-02-17T18:48:15.103Z,12.09
2023-02-17T18:51:15.789Z,11.78
2023-02-17T18:54:03.063Z,11.86
2023-02-17T18:56:49.370Z,11.72
2023-02-17T18:59:35.917Z,11.80
2023-02-17T19:02:22.217Z,11.43
2023-02-17T19:05:10.376Z,11.69
2023-02-17T19:07:56.855Z,11.47
2023-02-17T19:10:44.782Z,11.22
2023-02-17T19:13:31.185Z,11.54
2023-02-17T19:16:24.402Z,11.53
2023-02-17T19:19:10.992Z,11.30
2023-02-17T19:21:58.162Z,11.32
2023-02-17T19:24:45.007Z,11.35
2023-02-17T19:27:31.464Z,11.35
2023-02-17T19:30:18.222Z,11.18
2023-02-17T19:33:04.690Z,11.41
2023-02-17T19:35:51.833Z,11.44
2023-02-17T19:38:39.287Z,11.33
2023-02-17T19:41:25.585Z,11.44
2023-02-17T19:44:12.036Z,11.04
2023-02-17T19:46:58.692Z,11.36
2023-02-17T19:49:45.088Z,11.13
2023-02-17T19:52:31.351Z,11.40
2023-02-17T19:55:18.521Z,11.28
2023-02-17T19:58:05.049Z,11.34
2023-02-17T20:00:51.244Z,11.28
2023-02-17T20:03:37.967Z,11.31
2023-02-17T20:06:38.809Z,11.46
2023-02-17T20:09:25.380Z,11.40
2023-02-17T20:12:11.859Z,11.29
2023-02-17T20:14:58.400Z,11.05
2023-02-17T20:17:45.026Z,11.00
2023-02-17T20:20:31.249Z,11.06
2023-02-17T20:23:17.459Z,10.72
2023-02-17T20:26:06.807Z,10.85
2023-02-17T20:28:54.364Z,11.01
2023-02-17T20:31:41.978Z,10.76
2023-02-17T20:34:32.642Z,11.06
2023-02-17T20:37:19.038Z,10.54
2023-02-17T20:40:06.280Z,10.99
2023-02-17T20:42:52.995Z,11.07
2023-02-17T20:45:42.874Z,10.95
2023-02-17T20:48:29.488Z,11.02
2023-02-17T20:51:15.764Z,11.06
2023-02-17T20:54:02.072Z,11.24
2023-02-17T20:56:48.774Z,11.42
2023-02-17T20:59:35.072Z,11.47
2023-02-17T21:02:21.597Z,11.51
2023-02-17T21:05:08.204Z,11.40
2023-02-17T21:07:56.967Z,11.52
2023-02-17T21:10:43.661Z,11.53
2023-02-17T21:13:30.547Z,11.46
2023-02-17T21:16:19.923Z,11.52
2023-02-17T21:19:07.634Z,11.61
2023-02-17T21:21:54.341Z,11.70
2023-02-17T21:24:40.929Z,11.57
2023-02-17T21:27:27.597Z,11.81
2023-02-17T21:30:14.705Z,11.74
2023-02-17T21:33:01.386Z,11.81
2023-02-17T21:35:48.058Z,11.68
2023-02-17T21:38:34.529Z,11.84
2023-02-17T21:41:23.553Z,11.91
2023-02-17T21:44:30.610Z,11.89
2023-02-17T21:47:17.497Z,11.60
2023-02-17T21:50:04.100Z,11.67
2023-02-17T21:52:51.120Z,11.84
2023-02-17T21:55:37.571Z,11.90
2023-02-17T21:58:24.192Z,11.87
2023-02-17T22:01:10.507Z,11.74
2023-02-17T22:03:57.931Z,11.84
2023-02-17T22:06:44.654Z,11.75
2023-02-17T22:09:30.902Z,11.76
2023-02-17T22:12:17.634Z,11.73
2023-02-17T22:15:06.834Z,11.53
2023-02-17T22:17:53.267Z,11.45
2023-02-17T22:20:44.081Z,11.48
2023-02-17T22:23:30.855Z,11.63
2023-02-17T22:26:22.739Z,11.49
2023-02-17T22:29:09.491Z,11.57
2023-02-17T22:31:56.199Z,11.48
2023-02-17T22:34:42.846Z,11.78
2023-02-17T22:37:29.452Z,11.62
2023-02-17T22:40:15.861Z,11.68
2023-02-17T22:43:02.219Z,11.72
2023-02-17T22:45:48.719Z,11.75
2023-02-17T22:48:37.502Z,11.65
2023-02-17T22:51:27.113Z,11.58
2023-02-17T22:54:13.892Z,11.35
2023-02-17T22:57:00.815Z,11.55
2023-02-17T22:59:47.308Z,11.57
2023-02-17T23:02:36.622Z,11.78
2023-02-17T23:05:22.917Z,11.70
2023-02-17T23:08:10.828Z,11.59
2023-02-17T23:10:57.458Z,11.43
2023-02-17T23:13:44.434Z,11.24
2023-02-17T23:16:30.956Z,11.28
2023-02-17T23:19:19.428Z,11.54
2023-02-17T23:22:11.673Z,11.41
2023-02-17T23:24:58.519Z,11.41
2023-02-17T23:27:45.786Z,11.65
2023-02-17T23:30:33.254Z,11.68
2023-02-17T23:33:22.448Z,11.80
2023-02-17T23:36:09.856Z,11.53
2023-02-17T23:39:00.540Z,11.69
2023-02-17T23:41:47.200Z,11.55
2023-02-17T23:44:33.534Z,11.84
2023-02-17T23:47:19.909Z,11.63
2023-02-17T23:50:06.748Z,11.88
2023-02-17T23:52:53.140Z,11.75
2023-02-17T23:55:39.679Z,11.85
2023-02-17T23:58:26.149Z,11.75
